Krasnye Baki, Russia
Current Conditions -  °F | °C
As of 2:30 AM on Saturday 01 Nov 2014 (Local Time) from UWGG Reporting Station
Haze Haze  
Wind Chill: 32°   Ceiling: 4300
Heat Index: 32°   Visibility: 3mi
Dew Point: 30°   Wind: 0mph
Humidity: 93%   Direction: NA
Pressure: 30"   Gusts: NA
Location:  57.13°N, 45.17°E
Report Text: UWGG 312330Z 00000MPS 5000 BR BKN043 M00/M01 Q1016 NOSIG36190055 RMK QFE755
Loading
Personal Weather Stations






























Interactive Weather Map
Tropical Storm Tracking
New forecast layout! Learn more

10-Day Weather Forecast

Advertisements
Track Severe Weather on mobile